Redwood City, CA (94061)

4:54 PM PDT on August 25, 2016 (GMT -0700)
Woodside | | Change Station

Elev 375 ft 37.42 °N, 122.25 °W | Updated 7 seconds ago

Partly Cloudy
Partly Cloudy
72.1 °F
Feels Like 76 °F
N
0.0
Wind Variable Wind from North
Gusts 0.0 mph

Today
High -- | Low -- °F
--% Chance of Precip.
Yesterday
High -- | Low -- °F
Precip. -- in
Pressure 29.88 in
Visibility 10.0 miles
Clouds Few 1500 ft
Heat Index 76 °F
Dew Point 58 °F
Humidity 62%
Rainfall 0.00 in
Snow Depth Not available.
6:34 AM 7:46 PM
Last Quarter, 41% visible
METAR KSQL 252347Z 27010KT 10SM FEW015 22/13 A2988
Pressure 29.88 in
Visibility 10.0 miles
Clouds Few 1500 ft
Heat Index 76 °F
Dew Point 58 °F
Humidity 62%
Rainfall 0.00 in
Snow Depth Not available.
6:34 AM 7:46 PM
Last Quarter, 41% visible
METAR KSQL 252347Z 27010KT 10SM FEW015 22/13 A2988
A tropical disturbance pushing toward the Bahamas, is expected to develop into a tropical depression or storm, and will likely target Florida and the Gulf Coast this weekend into next week.

Right now, the disturbance remains a broad area of low pressure pushing through the Dominican Republic and Haiti, headed toward the southeast Bahamas. Rainfall totals over 3 inches (with locally higher amounts) are expected in HispaƱiola, particularly over elevated terrain.

10-Day Weather Forecast

Almanac

Astronomy

Aug. 25, 2016 Rise Set
Actual Time
Civil Twilight
Nautical Twilight
Astronomical Twilight
Moon
Length of Visible Light
Length of Day
Tomorrow will be .
, % of the Moon is Illuminated

Today's Extremes

State Highs State Lows

Community

WunderPhotos

Upload Photos

1,934,967 photos uploaded!

WunderBlog® & News

Nearby

Air Quality

  Air Quality AQ Index Pollutant
Not available.

Snow Depth

Station Depth Elevation

Earthquake Activity

City Distance Mag. Time & Date
Minimum magnitude displayed is 2.5.

Coastal Water Temperatures

Place Temperature

Stations

Nearby Weather Stations

Station Location Temp. Windchill Dew Point Humidity Wind Precip. Elev Updated Type
                   

Watches & Warnings

There are currently no watches in effect.